sensor_id;sensor_type;location;lat;lon;timestamp;temperature;humidity
7129;DHT22;3606;52.930;8.644;2023-06-14T00:00:19;15.00;99.90
7129;DHT22;3606;52.930;8.644;2023-06-14T00:02:45;14.90;99.90
7129;DHT22;3606;52.930;8.644;2023-06-14T00:05:10;14.90;53.30
7129;DHT22;3606;52.930;8.644;2023-06-14T00:07:41;14.90;93.80
7129;DHT22;3606;52.930;8.644;2023-06-14T00:10:14;14.80;1.00
7129;DHT22;3606;52.930;8.644;2023-06-14T00:12:40;14.80;1.00
7129;DHT22;3606;52.930;8.644;2023-06-14T00:15:06;14.80;1.00
7129;DHT22;3606;52.930;8.644;2023-06-14T00:17:32;14.80;99.90
7129;DHT22;3606;52.930;8.644;2023-06-14T00:19:59;14.80;82.00
7129;DHT22;3606;52.930;8.644;2023-06-14T00:22:25;14.70;99.90
7129;DHT22;3606;52.930;8.644;2023-06-14T00:24:52;14.70;99.90
7129;DHT22;3606;52.930;8.644;2023-06-14T00:27:17;14.60;99.90
7129;DHT22;3606;52.930;8.644;2023-06-14T00:29:43;14.60;1.00
7129;DHT22;3606;52.930;8.644;2023-06-14T00:32:09;14.50;1.00
7129;DHT22;3606;52.930;8.644;2023-06-14T00:34:34;14.60;97.30
7129;DHT22;3606;52.930;8.644;2023-06-14T00:37:01;14.50;1.00
7129;DHT22;3606;52.930;8.644;2023-06-14T00:39:26;14.50;99.90
7129;DHT22;3606;52.930;8.644;2023-06-14T00:41:52;14.50;1.00
7129;DHT22;3606;52.930;8.644;2023-06-14T00:44:18;14.40;99.90
7129;DHT22;3606;52.930;8.644;2023-06-14T00:46:45;14.40;1.00
7129;DHT22;3606;52.930;8.644;2023-06-14T00:49:14;14.40;99.90
7129;DHT22;3606;52.930;8.644;2023-06-14T00:51:42;14.40;1.00
7129;DHT22;3606;52.930;8.644;2023-06-14T00:54:08;14.40;1.00
7129;DHT22;3606;52.930;8.644;2023-06-14T00:56:36;14.40;1.00
7129;DHT22;3606;52.930;8.644;2023-06-14T00:59:03;14.30;1.00
7129;DHT22;3606;52.930;8.644;2023-06-14T01:01:29;14.20;99.90
7129;DHT22;3606;52.930;8.644;2023-06-14T01:03:58;14.20;1.00
7129;DHT22;3606;52.930;8.644;2023-06-14T01:06:33;14.10;1.00
7129;DHT22;3606;52.930;8.644;2023-06-14T01:09:32;14.10;1.00
7129;DHT22;3606;52.930;8.644;2023-06-14T01:12:23;14.10;99.90
7129;DHT22;3606;52.930;8.644;2023-06-14T01:14:50;14.10;1.00
7129;DHT22;3606;52.930;8.644;2023-06-14T01:17:17;14.10;1.00
7129;DHT22;3606;52.930;8.644;2023-06-14T01:19:43;14.10;99.90
7129;DHT22;3606;52.930;8.644;2023-06-14T01:22:10;14.10;1.00
7129;DHT22;3606;52.930;8.644;2023-06-14T01:24:36;14.10;99.90
7129;DHT22;3606;52.930;8.644;2023-06-14T01:27:02;14.00;99.90
7129;DHT22;3606;52.930;8.644;2023-06-14T01:29:29;14.00;1.00
7129;DHT22;3606;52.930;8.644;2023-06-14T01:31:59;13.90;99.90
7129;DHT22;3606;52.930;8.644;2023-06-14T01:34:25;13.90;1.00
7129;DHT22;3606;52.930;8.644;2023-06-14T01:36:52;13.90;1.00
7129;DHT22;3606;52.930;8.644;2023-06-14T01:39:20;13.80;99.90
7129;DHT22;3606;52.930;8.644;2023-06-14T01:41:47;13.80;1.00
7129;DHT22;3606;52.930;8.644;2023-06-14T01:44:16;13.70;99.90
7129;DHT22;3606;52.930;8.644;2023-06-14T01:46:43;13.60;99.90
7129;DHT22;3606;52.930;8.644;2023-06-14T01:49:09;13.50;1.00
7129;DHT22;3606;52.930;8.644;2023-06-14T01:51:34;13.50;99.90
7129;DHT22;3606;52.930;8.644;2023-06-14T01:54:00;13.40;1.00
7129;DHT22;3606;52.930;8.644;2023-06-14T01:56:26;13.40;99.90
7129;DHT22;3606;52.930;8.644;2023-06-14T01:58:52;13.30;99.90
7129;DHT22;3606;52.930;8.644;2023-06-14T02:01:19;13.30;99.90
7129;DHT22;3606;52.930;8.644;2023-06-14T02:03:46;13.30;1.00
7129;DHT22;3606;52.930;8.644;2023-06-14T02:06:13;13.30;1.00
7129;DHT22;3606;52.930;8.644;2023-06-14T02:08:39;13.20;99.90
7129;DHT22;3606;52.930;8.644;2023-06-14T02:11:05;13.20;1.00
7129;DHT22;3606;52.930;8.644;2023-06-14T02:13:30;13.10;99.90
7129;DHT22;3606;52.930;8.644;2023-06-14T02:15:56;13.00;99.90
7129;DHT22;3606;52.930;8.644;2023-06-14T02:18:23;13.00;1.00
7129;DHT22;3606;52.930;8.644;2023-06-14T02:20:48;12.90;1.00
7129;DHT22;3606;52.930;8.644;2023-06-14T02:23:14;12.80;99.90
7129;DHT22;3606;52.930;8.644;2023-06-14T02:25:40;12.80;1.00
7129;DHT22;3606;52.930;8.644;2023-06-14T02:28:06;12.80;1.00
7129;DHT22;3606;52.930;8.644;2023-06-14T02:30:31;12.70;99.90
7129;DHT22;3606;52.930;8.644;2023-06-14T02:32:57;12.80;60.80
7129;DHT22;3606;52.930;8.644;2023-06-14T02:35:23;12.70;99.90
7129;DHT22;3606;52.930;8.644;2023-06-14T02:37:52;12.70;99.90
7129;DHT22;3606;52.930;8.644;2023-06-14T02:40:18;12.70;1.00
7129;DHT22;3606;52.930;8.644;2023-06-14T02:42:44;12.80;99.90
7129;DHT22;3606;52.930;8.644;2023-06-14T02:45:10;12.70;29.80
7129;DHT22;3606;52.930;8.644;2023-06-14T02:47:36;12.70;99.90
7129;DHT22;3606;52.930;8.644;2023-06-14T02:50:01;12.70;99.90
7129;DHT22;3606;52.930;8.644;2023-06-14T02:52:28;12.60;99.90
7129;DHT22;3606;52.930;8.644;2023-06-14T02:54:54;12.60;99.90
7129;DHT22;3606;52.930;8.644;2023-06-14T02:57:20;12.60;99.90
7129;DHT22;3606;52.930;8.644;2023-06-14T02:59:46;12.50;1.00
7129;DHT22;3606;52.930;8.644;2023-06-14T03:02:11;12.50;1.00
7129;DHT22;3606;52.930;8.644;2023-06-14T03:04:37;12.40;1.00
7129;DHT22;3606;52.930;8.644;2023-06-14T03:07:03;12.50;1.00
7129;DHT22;3606;52.930;8.644;2023-06-14T03:09:35;12.50;1.00
7129;DHT22;3606;52.930;8.644;2023-06-14T03:12:02;12.50;1.00
7129;DHT22;3606;52.930;8.644;2023-06-14T03:14:28;12.40;1.00
7129;DHT22;3606;52.930;8.644;2023-06-14T03:16:56;12.40;33.00
7129;DHT22;3606;52.930;8.644;2023-06-14T03:19:22;12.40;36.90
7129;DHT22;3606;52.930;8.644;2023-06-14T03:21:48;12.50;33.60
7129;DHT22;3606;52.930;8.644;2023-06-14T03:24:15;12.40;9.50
7129;DHT22;3606;52.930;8.644;2023-06-14T03:26:42;12.50;23.20
7129;DHT22;3606;52.930;8.644;2023-06-14T03:29:08;12.50;28.30
7129;DHT22;3606;52.930;8.644;2023-06-14T03:31:34;12.50;99.90
7129;DHT22;3606;52.930;8.644;2023-06-14T03:34:01;12.60;25.50
7129;DHT22;3606;52.930;8.644;2023-06-14T03:36:26;12.50;48.60
7129;DHT22;3606;52.930;8.644;2023-06-14T03:38:53;12.50;73.90
7129;DHT22;3606;52.930;8.644;2023-06-14T03:41:19;12.60;99.90
7129;DHT22;3606;52.930;8.644;2023-06-14T03:43:45;12.50;94.20
7129;DHT22;3606;52.930;8.644;2023-06-14T03:46:10;12.60;79.60
7129;DHT22;3606;52.930;8.644;2023-06-14T03:48:36;12.60;1.00
7129;DHT22;3606;52.930;8.644;2023-06-14T03:51:02;12.60;99.90
7129;DHT22;3606;52.930;8.644;2023-06-14T03:53:28;12.70;34.20
7129;DHT22;3606;52.930;8.644;2023-06-14T03:55:55;12.70;70.20
7129;DHT22;3606;52.930;8.644;2023-06-14T03:58:20;12.70;86.20
7129;DHT22;3606;52.930;8.644;2023-06-14T04:00:46;12.70;74.90
7129;DHT22;3606;52.930;8.644;2023-06-14T04:03:12;12.70;80.00
7129;DHT22;3606;52.930;8.644;2023-06-14T04:05:39;12.70;92.10
7129;DHT22;3606;52.930;8.644;2023-06-14T04:08:10;12.80;1.00
7129;DHT22;3606;52.930;8.644;2023-06-14T04:10:35;12.90;99.90
7129;DHT22;3606;52.930;8.644;2023-06-14T04:13:01;12.90;1.00
7129;DHT22;3606;52.930;8.644;2023-06-14T04:15:27;12.90;1.00
7129;DHT22;3606;52.930;8.644;2023-06-14T04:17:55;13.00;1.00
7129;DHT22;3606;52.930;8.644;2023-06-14T04:20:23;13.00;99.90
7129;DHT22;3606;52.930;8.644;2023-06-14T04:22:50;13.10;1.00
7129;DHT22;3606;52.930;8.644;2023-06-14T04:25:16;13.20;1.00
7129;DHT22;3606;52.930;8.644;2023-06-14T04:27:42;13.20;1.00
7129;DHT22;3606;52.930;8.644;2023-06-14T04:30:08;13.20;1.00
7129;DHT22;3606;52.930;8.644;2023-06-14T04:32:34;13.30;1.00
7129;DHT22;3606;52.930;8.644;2023-06-14T04:35:04;13.30;1.00
7129;DHT22;3606;52.930;8.644;2023-06-14T04:37:30;13.40;1.00
7129;DHT22;3606;52.930;8.644;2023-06-14T04:39:56;13.50;1.00
7129;DHT22;3606;52.930;8.644;2023-06-14T04:42:22;13.60;1.00
7129;DHT22;3606;52.930;8.644;2023-06-14T04:44:51;13.80;1.00
7129;DHT22;3606;52.930;8.644;2023-06-14T04:47:20;13.80;1.00
7129;DHT22;3606;52.930;8.644;2023-06-14T04:49:46;14.00;1.00
7129;DHT22;3606;52.930;8.644;2023-06-14T04:52:12;14.30;1.00
7129;DHT22;3606;52.930;8.644;2023-06-14T04:54:39;14.60;99.90
7129;DHT22;3606;52.930;8.644;2023-06-14T04:57:08;14.70;99.90
7129;DHT22;3606;52.930;8.644;2023-06-14T04:59:39;14.90;99.90
7129;DHT22;3606;52.930;8.644;2023-06-14T05:02:05;14.90;99.90
7129;DHT22;3606;52.930;8.644;2023-06-14T05:04:31;15.00;99.90
7129;DHT22;3606;52.930;8.644;2023-06-14T05:06:57;15.10;99.90
7129;DHT22;3606;52.930;8.644;2023-06-14T05:09:23;15.10;99.90
7129;DHT22;3606;52.930;8.644;2023-06-14T05:11:48;15.30;99.90
7129;DHT22;3606;52.930;8.644;2023-06-14T05:14:15;15.70;99.90
7129;DHT22;3606;52.930;8.644;2023-06-14T05:16:41;16.10;99.90
7129;DHT22;3606;52.930;8.644;2023-06-14T05:19:08;16.50;99.90
7129;DHT22;3606;52.930;8.644;2023-06-14T05:21:33;16.70;76.80
7129;DHT22;3606;52.930;8.644;2023-06-14T05:24:00;17.10;1.00
7129;DHT22;3606;52.930;8.644;2023-06-14T05:26:26;17.10;1.00
7129;DHT22;3606;52.930;8.644;2023-06-14T05:28:56;17.20;1.00
7129;DHT22;3606;52.930;8.644;2023-06-14T05:31:22;17.50;1.00
7129;DHT22;3606;52.930;8.644;2023-06-14T05:33:49;18.00;1.00
7129;DHT22;3606;52.930;8.644;2023-06-14T05:36:15;18.30;99.90
7129;DHT22;3606;52.930;8.644;2023-06-14T05:38:40;18.60;99.90
7129;DHT22;3606;52.930;8.644;2023-06-14T05:41:06;19.00;99.90
7129;DHT22;3606;52.930;8.644;2023-06-14T05:43:31;19.20;99.90
7129;DHT22;3606;52.930;8.644;2023-06-14T05:45:57;19.40;99.90
7129;DHT22;3606;52.930;8.644;2023-06-14T05:48:22;19.70;1.00
7129;DHT22;3606;52.930;8.644;2023-06-14T05:50:48;19.90;99.90
7129;DHT22;3606;52.930;8.644;2023-06-14T05:53:14;20.00;99.90
7129;DHT22;3606;52.930;8.644;2023-06-14T05:55:39;20.00;99.90
7129;DHT22;3606;52.930;8.644;2023-06-14T05:58:05;20.00;99.90
7129;DHT22;3606;52.930;8.644;2023-06-14T06:00:31;20.00;99.90
7129;DHT22;3606;52.930;8.644;2023-06-14T06:02:57;19.90;99.90
7129;DHT22;3606;52.930;8.644;2023-06-14T06:05:23;20.00;99.90
7129;DHT22;3606;52.930;8.644;2023-06-14T06:07:49;20.20;99.90
7129;DHT22;3606;52.930;8.644;2023-06-14T06:10:15;20.20;99.90
7129;DHT22;3606;52.930;8.644;2023-06-14T06:12:41;20.20;99.90
7129;DHT22;3606;52.930;8.644;2023-06-14T06:15:08;20.40;99.90
7129;DHT22;3606;52.930;8.644;2023-06-14T06:17:37;20.60;99.90
7129;DHT22;3606;52.930;8.644;2023-06-14T06:20:03;20.60;90.80
7129;DHT22;3606;52.930;8.644;2023-06-14T06:22:31;20.50;44.30
7129;DHT22;3606;52.930;8.644;2023-06-14T06:24:56;20.40;99.90
7129;DHT22;3606;52.930;8.644;2023-06-14T06:27:22;20.70;99.90
7129;DHT22;3606;52.930;8.644;2023-06-14T06:29:47;20.90;99.50
7129;DHT22;3606;52.930;8.644;2023-06-14T06:32:16;21.00;49.50
7129;DHT22;3606;52.930;8.644;2023-06-14T06:34:42;21.40;1.00
7129;DHT22;3606;52.930;8.644;2023-06-14T06:37:07;21.70;1.00
7129;DHT22;3606;52.930;8.644;2023-06-14T06:39:33;21.80;1.00
7129;DHT22;3606;52.930;8.644;2023-06-14T06:41:59;21.80;1.00
7129;DHT22;3606;52.930;8.644;2023-06-14T06:44:24;22.00;1.00
7129;DHT22;3606;52.930;8.644;2023-06-14T06:46:50;21.80;1.00
7129;DHT22;3606;52.930;8.644;2023-06-14T06:49:16;21.60;1.00
7129;DHT22;3606;52.930;8.644;2023-06-14T06:51:42;21.90;1.00
7129;DHT22;3606;52.930;8.644;2023-06-14T06:54:09;21.80;1.00
7129;DHT22;3606;52.930;8.644;2023-06-14T06:56:35;21.60;1.00
7129;DHT22;3606;52.930;8.644;2023-06-14T06:59:01;21.90;99.90
7129;DHT22;3606;52.930;8.644;2023-06-14T07:01:26;21.80;99.90
7129;DHT22;3606;52.930;8.644;2023-06-14T07:03:54;21.70;99.90
7129;DHT22;3606;52.930;8.644;2023-06-14T07:06:20;21.70;99.90
7129;DHT22;3606;52.930;8.644;2023-06-14T07:08:45;22.10;99.90
7129;DHT22;3606;52.930;8.644;2023-06-14T07:11:13;22.40;99.90
7129;DHT22;3606;52.930;8.644;2023-06-14T07:13:39;22.70;99.90
7129;DHT22;3606;52.930;8.644;2023-06-14T07:16:05;22.70;99.90
7129;DHT22;3606;52.930;8.644;2023-06-14T07:18:31;22.80;99.90
7129;DHT22;3606;52.930;8.644;2023-06-14T07:20:56;22.90;1.00
7129;DHT22;3606;52.930;8.644;2023-06-14T07:23:23;23.30;1.00
7129;DHT22;3606;52.930;8.644;2023-06-14T07:25:49;23.40;1.00
7129;DHT22;3606;52.930;8.644;2023-06-14T07:28:16;23.60;1.00
7129;DHT22;3606;52.930;8.644;2023-06-14T07:30:41;23.60;1.20
7129;DHT22;3606;52.930;8.644;2023-06-14T07:33:07;23.90;99.90
7129;DHT22;3606;52.930;8.644;2023-06-14T07:35:33;23.80;1.00
7129;DHT22;3606;52.930;8.644;2023-06-14T07:37:59;23.70;1.00
7129;DHT22;3606;52.930;8.644;2023-06-14T07:40:24;23.80;99.90
7129;DHT22;3606;52.930;8.644;2023-06-14T07:42:50;24.10;99.90
7129;DHT22;3606;52.930;8.644;2023-06-14T07:45:16;24.00;83.50
7129;DHT22;3606;52.930;8.644;2023-06-14T07:47:41;24.60;99.90
7129;DHT22;3606;52.930;8.644;2023-06-14T07:50:08;25.00;99.90
7129;DHT22;3606;52.930;8.644;2023-06-14T07:52:33;25.50;99.90
7129;DHT22;3606;52.930;8.644;2023-06-14T07:54:59;26.00;99.90
7129;DHT22;3606;52.930;8.644;2023-06-14T07:57:25;26.00;99.90
7129;DHT22;3606;52.930;8.644;2023-06-14T07:59:51;25.90;99.90
7129;DHT22;3606;52.930;8.644;2023-06-14T08:02:16;25.70;99.90
7129;DHT22;3606;52.930;8.644;2023-06-14T08:04:42;25.50;99.90
7129;DHT22;3606;52.930;8.644;2023-06-14T08:07:08;25.70;99.90
7129;DHT22;3606;52.930;8.644;2023-06-14T08:09:35;25.70;99.90
7129;DHT22;3606;52.930;8.644;2023-06-14T08:12:03;25.50;99.90
7129;DHT22;3606;52.930;8.644;2023-06-14T08:14:34;25.20;99.90
7129;DHT22;3606;52.930;8.644;2023-06-14T08:16:59;25.10;99.90
7129;DHT22;3606;52.930;8.644;2023-06-14T08:19:25;25.20;99.90
7129;DHT22;3606;52.930;8.644;2023-06-14T08:21:51;25.20;99.90
7129;DHT22;3606;52.930;8.644;2023-06-14T08:24:16;25.00;99.90
7129;DHT22;3606;52.930;8.644;2023-06-14T08:26:42;25.20;99.90
7129;DHT22;3606;52.930;8.644;2023-06-14T08:29:07;25.50;99.90
7129;DHT22;3606;52.930;8.644;2023-06-14T08:31:34;26.00;99.90
7129;DHT22;3606;52.930;8.644;2023-06-14T08:33:59;26.00;99.90
7129;DHT22;3606;52.930;8.644;2023-06-14T08:36:28;26.20;99.90
7129;DHT22;3606;52.930;8.644;2023-06-14T08:38:54;26.20;99.90
7129;DHT22;3606;52.930;8.644;2023-06-14T08:41:23;25.90;99.90
7129;DHT22;3606;52.930;8.644;2023-06-14T08:43:50;26.30;99.90
7129;DHT22;3606;52.930;8.644;2023-06-14T08:46:18;26.80;99.90
7129;DHT22;3606;52.930;8.644;2023-06-14T08:48:47;27.30;99.90
7129;DHT22;3606;52.930;8.644;2023-06-14T08:51:18;27.00;99.90
7129;DHT22;3606;52.930;8.644;2023-06-14T08:53:45;27.00;99.90
7129;DHT22;3606;52.930;8.644;2023-06-14T08:56:12;27.10;99.90
7129;DHT22;3606;52.930;8.644;2023-06-14T08:58:43;27.00;99.90
7129;DHT22;3606;52.930;8.644;2023-06-14T09:01:11;27.30;99.90
7129;DHT22;3606;52.930;8.644;2023-06-14T09:03:42;28.00;99.90
7129;DHT22;3606;52.930;8.644;2023-06-14T09:06:08;27.90;99.90
7129;DHT22;3606;52.930;8.644;2023-06-14T09:08:40;27.80;99.90
7129;DHT22;3606;52.930;8.644;2023-06-14T09:11:07;27.80;99.90
7129;DHT22;3606;52.930;8.644;2023-06-14T09:13:33;28.00;99.90
7129;DHT22;3606;52.930;8.644;2023-06-14T09:15:59;27.70;99.90
7129;DHT22;3606;52.930;8.644;2023-06-14T09:18:42;27.20;99.90
7129;DHT22;3606;52.930;8.644;2023-06-14T09:21:10;27.50;99.90
7129;DHT22;3606;52.930;8.644;2023-06-14T09:23:38;28.20;99.90
7129;DHT22;3606;52.930;8.644;2023-06-14T09:28:36;28.70;99.90
7129;DHT22;3606;52.930;8.644;2023-06-14T09:31:06;28.60;99.90
7129;DHT22;3606;52.930;8.644;2023-06-14T09:33:34;28.50;99.90
7129;DHT22;3606;52.930;8.644;2023-06-14T09:35:59;28.30;99.90
7129;DHT22;3606;52.930;8.644;2023-06-14T09:38:25;28.20;99.90
7129;DHT22;3606;52.930;8.644;2023-06-14T09:40:51;28.30;99.90
7129;DHT22;3606;52.930;8.644;2023-06-14T09:43:17;28.60;99.90
7129;DHT22;3606;52.930;8.644;2023-06-14T09:45:44;28.50;99.90
7129;DHT22;3606;52.930;8.644;2023-06-14T09:48:14;28.90;99.90
7129;DHT22;3606;52.930;8.644;2023-06-14T09:50:47;28.60;99.90
7129;DHT22;3606;52.930;8.644;2023-06-14T09:53:15;28.80;99.90
7129;DHT22;3606;52.930;8.644;2023-06-14T09:55:42;28.90;99.90
7129;DHT22;3606;52.930;8.644;2023-06-14T09:58:10;28.40;99.90
7129;DHT22;3606;52.930;8.644;2023-06-14T10:00:36;28.30;99.90
7129;DHT22;3606;52.930;8.644;2023-06-14T10:03:18;28.40;99.90
7129;DHT22;3606;52.930;8.644;2023-06-14T10:05:47;27.30;99.90
7129;DHT22;3606;52.930;8.644;2023-06-14T10:08:18;27.60;99.90
7129;DHT22;3606;52.930;8.644;2023-06-14T10:10:44;28.10;99.90
7129;DHT22;3606;52.930;8.644;2023-06-14T10:13:11;28.60;99.90
7129;DHT22;3606;52.930;8.644;2023-06-14T10:23:47;28.90;99.90
7129;DHT22;3606;52.930;8.644;2023-06-14T10:26:21;29.20;99.90
7129;DHT22;3606;52.930;8.644;2023-06-14T10:29:20;30.10;99.90
7129;DHT22;3606;52.930;8.644;2023-06-14T10:31:47;31.10;99.90
7129;DHT22;3606;52.930;8.644;2023-06-14T10:34:26;31.20;99.90
7129;DHT22;3606;52.930;8.644;2023-06-14T10:37:03;31.20;99.90
7129;DHT22;3606;52.930;8.644;2023-06-14T10:39:29;31.60;99.90
7129;DHT22;3606;52.930;8.644;2023-06-14T10:41:57;31.20;99.90
7129;DHT22;3606;52.930;8.644;2023-06-14T10:46:49;31.50;99.90
7129;DHT22;3606;52.930;8.644;2023-06-14T10:49:18;31.30;99.90
7129;DHT22;3606;52.930;8.644;2023-06-14T10:51:49;31.00;99.90
7129;DHT22;3606;52.930;8.644;2023-06-14T10:54:16;30.30;99.90
7129;DHT22;3606;52.930;8.644;2023-06-14T10:56:49;30.20;99.90
7129;DHT22;3606;52.930;8.644;2023-06-14T10:59:17;30.50;99.90
7129;DHT22;3606;52.930;8.644;2023-06-14T11:04:20;30.60;99.90
7129;DHT22;3606;52.930;8.644;2023-06-14T11:06:48;31.90;99.90
7129;DHT22;3606;52.930;8.644;2023-06-14T11:09:34;31.90;99.90
7129;DHT22;3606;52.930;8.644;2023-06-14T11:12:09;32.20;99.90
7129;DHT22;3606;52.930;8.644;2023-06-14T11:14:36;32.30;99.90
7129;DHT22;3606;52.930;8.644;2023-06-14T11:17:01;32.60;99.90
7129;DHT22;3606;52.930;8.644;2023-06-14T11:19:27;31.80;99.90
7129;DHT22;3606;52.930;8.644;2023-06-14T11:21:54;30.40;99.90
7129;DHT22;3606;52.930;8.644;2023-06-14T11:24:20;29.30;99.90
7129;DHT22;3606;52.930;8.644;2023-06-14T11:26:47;28.90;99.90
7129;DHT22;3606;52.930;8.644;2023-06-14T11:29:14;29.90;99.90
7129;DHT22;3606;52.930;8.644;2023-06-14T11:31:43;30.90;99.90
7129;DHT22;3606;52.930;8.644;2023-06-14T11:34:10;31.60;99.90
7129;DHT22;3606;52.930;8.644;2023-06-14T11:36:35;31.80;99.90
7129;DHT22;3606;52.930;8.644;2023-06-14T11:39:05;31.60;99.90
7129;DHT22;3606;52.930;8.644;2023-06-14T11:41:34;31.00;99.90
7129;DHT22;3606;52.930;8.644;2023-06-14T11:44:01;30.60;99.90
7129;DHT22;3606;52.930;8.644;2023-06-14T11:46:28;30.40;99.90
7129;DHT22;3606;52.930;8.644;2023-06-14T11:48:53;30.40;99.90
7129;DHT22;3606;52.930;8.644;2023-06-14T11:51:19;30.60;99.90
7129;DHT22;3606;52.930;8.644;2023-06-14T11:53:45;29.80;99.90
7129;DHT22;3606;52.930;8.644;2023-06-14T11:56:11;29.00;99.90
7129;DHT22;3606;52.930;8.644;2023-06-14T11:58:37;28.80;99.90
7129;DHT22;3606;52.930;8.644;2023-06-14T12:01:03;29.10;99.90
7129;DHT22;3606;52.930;8.644;2023-06-14T12:03:29;29.50;99.90
7129;DHT22;3606;52.930;8.644;2023-06-14T12:06:05;30.10;99.90
7129;DHT22;3606;52.930;8.644;2023-06-14T12:08:36;30.30;99.90
7129;DHT22;3606;52.930;8.644;2023-06-14T12:11:06;30.50;99.90
7129;DHT22;3606;52.930;8.644;2023-06-14T12:13:34;30.90;99.90
7129;DHT22;3606;52.930;8.644;2023-06-14T12:16:01;30.70;99.90
7129;DHT22;3606;52.930;8.644;2023-06-14T12:18:34;30.80;99.90
7129;DHT22;3606;52.930;8.644;2023-06-14T12:21:00;31.20;99.90
7129;DHT22;3606;52.930;8.644;2023-06-14T12:23:46;31.40;99.90
7129;DHT22;3606;52.930;8.644;2023-06-14T12:26:14;31.60;99.90
7129;DHT22;3606;52.930;8.644;2023-06-14T12:28:40;31.60;99.90
7129;DHT22;3606;52.930;8.644;2023-06-14T12:31:07;30.90;99.90
7129;DHT22;3606;52.930;8.644;2023-06-14T12:33:33;30.60;99.90
7129;DHT22;3606;52.930;8.644;2023-06-14T12:35:59;29.90;99.90
7129;DHT22;3606;52.930;8.644;2023-06-14T12:38:25;29.80;99.90
7129;DHT22;3606;52.930;8.644;2023-06-14T12:40:50;30.60;99.90
7129;DHT22;3606;52.930;8.644;2023-06-14T12:43:16;31.30;99.90
7129;DHT22;3606;52.930;8.644;2023-06-14T12:45:42;32.10;99.90
7129;DHT22;3606;52.930;8.644;2023-06-14T12:48:07;32.60;99.90
7129;DHT22;3606;52.930;8.644;2023-06-14T12:50:34;32.30;99.90
7129;DHT22;3606;52.930;8.644;2023-06-14T12:53:00;32.20;99.90
7129;DHT22;3606;52.930;8.644;2023-06-14T12:55:25;32.70;99.90
7129;DHT22;3606;52.930;8.644;2023-06-14T12:57:51;33.30;99.90
7129;DHT22;3606;52.930;8.644;2023-06-14T13:00:17;34.10;99.90
7129;DHT22;3606;52.930;8.644;2023-06-14T13:02:43;34.10;99.90
7129;DHT22;3606;52.930;8.644;2023-06-14T13:05:09;32.80;99.90
7129;DHT22;3606;52.930;8.644;2023-06-14T13:07:34;31.00;99.90
7129;DHT22;3606;52.930;8.644;2023-06-14T13:10:00;29.90;99.90
7129;DHT22;3606;52.930;8.644;2023-06-14T13:12:26;28.80;99.90
7129;DHT22;3606;52.930;8.644;2023-06-14T13:14:52;27.90;99.90
7129;DHT22;3606;52.930;8.644;2023-06-14T13:17:17;27.80;99.90
7129;DHT22;3606;52.930;8.644;2023-06-14T13:19:43;29.70;99.90
7129;DHT22;3606;52.930;8.644;2023-06-14T13:22:08;31.60;99.90
7129;DHT22;3606;52.930;8.644;2023-06-14T13:24:34;33.00;99.90
7129;DHT22;3606;52.930;8.644;2023-06-14T13:27:00;33.40;99.90
7129;DHT22;3606;52.930;8.644;2023-06-14T13:29:26;34.50;99.90
7129;DHT22;3606;52.930;8.644;2023-06-14T13:31:53;33.70;99.90
7129;DHT22;3606;52.930;8.644;2023-06-14T13:34:19;33.50;99.90
7129;DHT22;3606;52.930;8.644;2023-06-14T13:36:44;33.20;99.90
7129;DHT22;3606;52.930;8.644;2023-06-14T13:39:10;33.00;99.90
7129;DHT22;3606;52.930;8.644;2023-06-14T13:41:38;32.80;99.90
7129;DHT22;3606;52.930;8.644;2023-06-14T13:44:04;33.00;99.90
7129;DHT22;3606;52.930;8.644;2023-06-14T13:46:30;33.80;99.90
7129;DHT22;3606;52.930;8.644;2023-06-14T13:48:56;33.90;99.90
7129;DHT22;3606;52.930;8.644;2023-06-14T13:51:23;34.00;99.90
7129;DHT22;3606;52.930;8.644;2023-06-14T13:53:49;33.10;99.90
7129;DHT22;3606;52.930;8.644;2023-06-14T13:56:16;32.90;99.90
7129;DHT22;3606;52.930;8.644;2023-06-14T13:58:42;32.00;99.90
7129;DHT22;3606;52.930;8.644;2023-06-14T14:01:08;31.30;99.90
7129;DHT22;3606;52.930;8.644;2023-06-14T14:03:34;30.60;99.90
7129;DHT22;3606;52.930;8.644;2023-06-14T14:06:01;31.30;99.90
7129;DHT22;3606;52.930;8.644;2023-06-14T14:08:27;32.30;99.90
7129;DHT22;3606;52.930;8.644;2023-06-14T14:10:53;31.50;99.90
7129;DHT22;3606;52.930;8.644;2023-06-14T14:13:19;30.80;99.90
7129;DHT22;3606;52.930;8.644;2023-06-14T14:15:46;30.00;99.90
7129;DHT22;3606;52.930;8.644;2023-06-14T14:18:11;29.60;99.90
7129;DHT22;3606;52.930;8.644;2023-06-14T14:20:37;29.50;99.90
7129;DHT22;3606;52.930;8.644;2023-06-14T14:23:03;30.20;99.90
7129;DHT22;3606;52.930;8.644;2023-06-14T14:25:28;30.60;99.90
7129;DHT22;3606;52.930;8.644;2023-06-14T14:27:54;31.40;99.90
7129;DHT22;3606;52.930;8.644;2023-06-14T14:30:20;30.60;99.90
7129;DHT22;3606;52.930;8.644;2023-06-14T14:32:51;29.90;99.90
7129;DHT22;3606;52.930;8.644;2023-06-14T14:35:18;28.80;99.90
7129;DHT22;3606;52.930;8.644;2023-06-14T14:37:44;27.90;99.90
7129;DHT22;3606;52.930;8.644;2023-06-14T14:40:09;27.60;99.90
7129;DHT22;3606;52.930;8.644;2023-06-14T14:42:36;27.30;99.90
7129;DHT22;3606;52.930;8.644;2023-06-14T14:45:01;27.00;99.90
7129;DHT22;3606;52.930;8.644;2023-06-14T14:47:27;26.90;99.90
7129;DHT22;3606;52.930;8.644;2023-06-14T14:49:53;26.90;99.90
7129;DHT22;3606;52.930;8.644;2023-06-14T14:52:18;26.80;99.90
7129;DHT22;3606;52.930;8.644;2023-06-14T14:54:44;26.80;99.90
7129;DHT22;3606;52.930;8.644;2023-06-14T14:57:09;26.80;99.90
7129;DHT22;3606;52.930;8.644;2023-06-14T14:59:36;26.70;99.90
7129;DHT22;3606;52.930;8.644;2023-06-14T15:02:01;27.80;99.90
7129;DHT22;3606;52.930;8.644;2023-06-14T15:04:27;29.90;99.90
7129;DHT22;3606;52.930;8.644;2023-06-14T15:06:52;31.20;99.90
7129;DHT22;3606;52.930;8.644;2023-06-14T15:09:18;31.90;99.90
7129;DHT22;3606;52.930;8.644;2023-06-14T15:11:44;32.70;99.90
7129;DHT22;3606;52.930;8.644;2023-06-14T15:14:10;33.00;99.90
7129;DHT22;3606;52.930;8.644;2023-06-14T15:16:35;33.10;99.90
7129;DHT22;3606;52.930;8.644;2023-06-14T15:19:01;32.40;99.90
7129;DHT22;3606;52.930;8.644;2023-06-14T15:21:27;31.40;99.90
7129;DHT22;3606;52.930;8.644;2023-06-14T15:23:52;30.40;99.90
7129;DHT22;3606;52.930;8.644;2023-06-14T15:26:19;29.20;99.90
7129;DHT22;3606;52.930;8.644;2023-06-14T15:28:44;28.40;99.90
7129;DHT22;3606;52.930;8.644;2023-06-14T15:31:10;27.60;99.90
7129;DHT22;3606;52.930;8.644;2023-06-14T15:33:35;26.80;99.90
7129;DHT22;3606;52.930;8.644;2023-06-14T15:36:01;26.30;99.90
7129;DHT22;3606;52.930;8.644;2023-06-14T15:38:28;26.00;99.90
7129;DHT22;3606;52.930;8.644;2023-06-14T15:40:53;26.00;99.90
7129;DHT22;3606;52.930;8.644;2023-06-14T15:43:19;26.00;99.90
7129;DHT22;3606;52.930;8.644;2023-06-14T15:45:44;25.90;99.90
7129;DHT22;3606;52.930;8.644;2023-06-14T15:48:10;25.90;99.90
7129;DHT22;3606;52.930;8.644;2023-06-14T15:50:36;26.10;99.90
7129;DHT22;3606;52.930;8.644;2023-06-14T15:53:02;26.20;99.90
7129;DHT22;3606;52.930;8.644;2023-06-14T15:55:27;26.40;99.90
7129;DHT22;3606;52.930;8.644;2023-06-14T15:57:53;26.30;99.90
7129;DHT22;3606;52.930;8.644;2023-06-14T16:00:19;26.40;99.90
7129;DHT22;3606;52.930;8.644;2023-06-14T16:02:45;26.30;99.90
7129;DHT22;3606;52.930;8.644;2023-06-14T16:05:11;26.30;99.90
7129;DHT22;3606;52.930;8.644;2023-06-14T16:07:37;26.40;99.90
7129;DHT22;3606;52.930;8.644;2023-06-14T16:10:03;26.60;99.90
7129;DHT22;3606;52.930;8.644;2023-06-14T16:12:28;26.80;99.90
7129;DHT22;3606;52.930;8.644;2023-06-14T16:14:54;26.60;99.90
7129;DHT22;3606;52.930;8.644;2023-06-14T16:17:20;26.40;99.90